Time;durP1;ratioP1;P1;durP2;ratioP2;P2;SDS_P1;SDS_P2;PMS_P1;PMS_P2;Temp;Humidity;BMP_temperature;BMP_pressure;BME280_temperature;BME280_humidity;BME280_pressure;Samples;Min_cycle;Max_cycle;Signal;HPM_P1;HPM_P2
2022/11/25 00:00:52;;;;;;;14.30;2.93;;;8.60;99.90;;;;;;5049995;28;20116;-50
2022/11/25 00:03:18;;;;;;;9.63;2.30;;;8.60;99.90;;;;;;5050068;28;20115;-51
2022/11/25 00:05:44;;;;;;;10.83;2.17;;;8.70;99.90;;;;;;5050260;28;20127;-53
2022/11/25 00:08:10;;;;;;;14.83;2.60;;;8.70;99.90;;;;;;5049814;28;20040;-54
2022/11/25 00:10:36;;;;;;;13.73;2.30;;;8.70;99.90;;;;;;5049910;28;20094;-54
2022/11/25 00:13:02;;;;;;;8.63;2.00;;;8.70;99.90;;;;;;5050711;28;20021;-53
2022/11/25 00:15:28;;;;;;;16.00;2.73;;;8.70;99.90;;;;;;5054011;28;20063;-50
2022/11/25 00:17:53;;;;;;;17.47;2.13;;;8.70;99.90;;;;;;5053437;28;20548;-53
2022/11/25 00:20:20;;;;;;;13.17;2.67;;;8.80;99.90;;;;;;5053802;28;20028;-55
2022/11/25 00:22:46;;;;;;;11.30;2.10;;;8.80;99.90;;;;;;5053990;28;20029;-54
2022/11/25 00:25:11;;;;;;;14.90;2.57;;;8.70;99.90;;;;;;5053894;28;20040;-55
2022/11/25 00:27:37;;;;;;;9.87;2.60;;;8.80;99.90;;;;;;5053470;28;20029;-55
2022/11/25 00:30:04;;;;;;;9.07;1.60;;;8.70;99.90;;;;;;5053446;28;20025;-55
2022/11/25 00:32:29;;;;;;;12.33;2.67;;;8.80;99.90;;;;;;5053708;28;20025;-50
2022/11/25 00:34:55;;;;;;;13.23;2.20;;;8.80;99.90;;;;;;5053650;28;20025;-53
2022/11/25 00:37:21;;;;;;;11.17;2.13;;;8.80;99.90;;;;;;5053504;28;20108;-54
2022/11/25 00:39:46;;;;;;;10.87;2.50;;;8.90;99.90;;;;;;5051760;28;20531;-51
2022/11/25 00:44:57;;;;;;;16.27;1.97;;;8.80;99.90;;;;;;5053487;28;20611;-53
2022/11/25 00:47:22;;;;;;;13.80;2.20;;;8.90;99.90;;;;;;5051946;28;20135;-53
2022/11/25 00:49:52;;;;;;;10.27;1.77;;;8.90;99.90;;;;;;5051539;28;20040;-55
2022/11/25 00:52:25;;;;;;;12.93;2.95;;;8.80;99.90;;;;;;5053381;28;20477;-54
2022/11/25 00:54:52;;;;;;;10.20;2.00;;;8.80;99.90;;;;;;5053260;28;20153;-51
2022/11/25 00:57:20;;;;;;;12.47;2.30;;;8.80;99.90;;;;;;5051789;28;20040;-53
2022/11/25 00:59:46;;;;;;;12.17;1.90;;;8.80;99.90;;;;;;5051470;28;20392;-52
2022/11/25 01:02:14;;;;;;;10.10;1.97;;;8.80;99.90;;;;;;5053113;28;20029;-53
2022/11/25 01:04:42;;;;;;;14.47;2.60;;;8.80;99.90;;;;;;5051850;28;20111;-54
2022/11/25 01:07:08;;;;;;;12.90;2.43;;;8.80;99.90;;;;;;5052935;28;20115;-54
2022/11/25 01:09:34;;;;;;;10.07;1.80;;;8.80;99.90;;;;;;5051345;28;20504;-55
2022/11/25 01:12:03;;;;;;;13.13;2.80;;;8.80;99.90;;;;;;5052956;28;20559;-53
2022/11/25 01:14:30;;;;;;;11.80;2.83;;;8.90;99.90;;;;;;5051681;28;20025;-54
2022/11/25 01:16:55;;;;;;;8.27;1.70;;;8.90;99.90;;;;;;5051003;28;20551;-53
2022/11/25 01:19:23;;;;;;;14.07;2.43;;;8.90;99.90;;;;;;5051246;28;20029;-53
2022/11/25 01:21:48;;;;;;;13.37;2.47;;;8.90;99.90;;;;;;5052723;28;20025;-53
2022/11/25 01:24:16;;;;;;;9.73;2.23;;;8.90;99.90;;;;;;5052216;28;20539;-54
2022/11/25 01:26:43;;;;;;;9.10;1.97;;;9.00;99.90;;;;;;5052246;28;20472;-54
2022/11/25 01:29:14;;;;;;;11.87;2.30;;;8.90;99.90;;;;;;5052441;28;20059;-54
2022/11/25 01:31:40;;;;;;;10.90;2.13;;;9.00;99.90;;;;;;5052396;28;20033;-53
2022/11/25 01:34:11;;;;;;;13.80;1.87;;;9.00;99.90;;;;;;5052560;28;20037;-54
2022/11/25 01:36:37;;;;;;;11.37;1.93;;;9.00;99.90;;;;;;5052260;28;20033;-53
2022/11/25 01:39:03;;;;;;;13.53;2.00;;;9.00;99.90;;;;;;5052168;28;20052;-53
2022/11/25 01:41:32;;;;;;;12.90;2.17;;;9.00;99.90;;;;;;5052247;28;20048;-54
2022/11/25 01:44:22;;;;;;;11.30;2.17;;;9.10;99.90;;;;;;5051196;28;20062;-54
2022/11/25 01:46:59;;;;;;;12.00;1.83;;;9.10;99.90;;;;;;5049133;28;20044;-54
2022/11/25 01:49:40;;;;;;;10.43;2.27;;;9.10;99.90;;;;;;5051922;28;20033;-53
2022/11/25 01:52:27;;;;;;;13.63;2.40;;;9.10;99.90;;;;;;5050957;28;20393;-53
2022/11/25 01:55:02;;;;;;;14.02;2.78;;;9.20;99.90;;;;;;5050996;28;20083;-53
2022/11/25 01:57:35;;;;;;;8.43;2.33;;;9.20;99.90;;;;;;5050407;28;20164;-52
2022/11/25 02:00:04;;;;;;;12.87;2.17;;;9.20;99.90;;;;;;5050542;28;20029;-51
2022/11/25 02:02:43;;;;;;;8.90;2.13;;;9.20;99.90;;;;;;5051943;28;20040;-50
2022/11/25 02:05:14;;;;;;;11.27;1.97;;;9.20;99.90;;;;;;5050716;28;20188;-53
2022/11/25 02:07:42;;;;;;;15.50;2.60;;;9.20;99.90;;;;;;5050438;28;20075;-54
2022/11/25 02:10:27;;;;;;;13.30;2.53;;;9.20;99.90;;;;;;5050220;28;20124;-55
2022/11/25 02:12:53;;;;;;;9.57;2.10;;;9.30;99.90;;;;;;5051706;28;20025;-54
2022/11/25 02:15:21;;;;;;;12.40;2.33;;;9.30;99.90;;;;;;5051802;28;20547;-55
2022/11/25 02:17:48;;;;;;;14.90;2.27;;;9.30;99.90;;;;;;5051465;28;20401;-50
2022/11/25 02:20:19;;;;;;;8.73;2.10;;;9.30;99.90;;;;;;5051246;28;20466;-51
2022/11/25 02:23:09;;;;;;;9.90;2.00;;;9.30;99.90;;;;;;5051720;28;20029;-52
2022/11/25 02:25:39;;;;;;;9.13;1.93;;;9.40;99.90;;;;;;5051460;28;20109;-51
2022/11/25 02:28:20;;;;;;;6.80;1.47;;;9.40;99.90;;;;;;5050095;28;20087;-54
2022/11/25 02:30:46;;;;;;;8.90;1.80;;;9.40;99.90;;;;;;5051099;28;20035;-54
2022/11/25 02:33:13;;;;;;;10.90;2.00;;;9.40;99.90;;;;;;5050173;28;20043;-51
2022/11/25 02:35:41;;;;;;;12.30;2.70;;;9.50;99.90;;;;;;5049902;28;20032;-50
2022/11/25 02:38:25;;;;;;;10.60;2.07;;;9.50;99.90;;;;;;5049634;28;20082;-53
2022/11/25 02:40:55;;;;;;;9.07;2.17;;;9.50;99.90;;;;;;5049613;28;20036;-55
2022/11/25 02:43:21;;;;;;;10.97;2.37;;;9.50;99.90;;;;;;5049874;28;20029;-51
2022/11/25 02:46:00;;;;;;;10.87;1.90;;;9.60;99.90;;;;;;5049822;28;20029;-54
2022/11/25 02:48:29;;;;;;;11.57;2.13;;;9.60;99.90;;;;;;5049507;28;20029;-51
2022/11/25 02:50:55;;;;;;;13.70;1.83;;;9.60;99.90;;;;;;5049668;28;20402;-53
2022/11/25 02:53:21;;;;;;;7.03;1.90;;;9.60;99.90;;;;;;5051023;28;20037;-52
2022/11/25 02:55:48;;;;;;;12.90;2.53;;;9.60;99.90;;;;;;5049542;28;20040;-50
2022/11/25 02:58:14;;;;;;;10.00;2.40;;;9.60;99.90;;;;;;5050622;28;20060;-52
2022/11/25 03:00:41;;;;;;;12.53;2.00;;;9.60;99.90;;;;;;5049373;28;20433;-53
2022/11/25 03:03:08;;;;;;;7.47;2.40;;;9.60;99.90;;;;;;5049631;28;20049;-52
2022/11/25 03:05:34;;;;;;;9.23;1.93;;;9.60;99.90;;;;;;5049494;28;20055;-50
2022/11/25 03:08:00;;;;;;;13.67;2.67;;;9.60;99.90;;;;;;5050607;28;20060;-54
2022/11/25 03:10:27;;;;;;;11.27;2.47;;;9.60;99.90;;;;;;5049184;28;20484;-52
2022/11/25 03:12:53;;;;;;;16.53;3.30;;;9.60;99.90;;;;;;5049300;28;20048;-55
2022/11/25 03:15:20;;;;;;;12.20;2.70;;;9.60;99.90;;;;;;5050754;28;20024;-54
2022/11/25 03:17:46;;;;;;;17.93;3.20;;;9.60;99.90;;;;;;5049063;28;20039;-55
2022/11/25 03:20:14;;;;;;;14.03;2.73;;;9.50;99.90;;;;;;5049119;28;20025;-54
2022/11/25 03:22:41;;;;;;;12.00;1.97;;;9.50;99.90;;;;;;5050507;28;20029;-51
2022/11/25 03:25:07;;;;;;;9.20;2.10;;;9.50;99.90;;;;;;5050509;28;20045;-53
2022/11/25 03:27:34;;;;;;;12.50;2.93;;;9.40;99.90;;;;;;5049065;28;20029;-48
2022/11/25 03:30:03;;;;;;;10.67;2.47;;;9.50;99.90;;;;;;5049091;28;20036;-50
2022/11/25 03:32:29;;;;;;;14.70;2.87;;;9.50;99.90;;;;;;5049163;28;20082;-49
2022/11/25 03:34:54;;;;;;;14.07;2.93;;;9.50;99.90;;;;;;5049240;28;20025;-52
2022/11/25 03:37:21;;;;;;;13.80;2.53;;;9.50;99.90;;;;;;5048888;28;20431;-52
2022/11/25 03:39:47;;;;;;;12.07;2.83;;;9.50;99.90;;;;;;5048753;28;20033;-54
2022/11/25 03:42:13;;;;;;;10.27;2.70;;;9.60;99.90;;;;;;5049199;28;20017;-54
2022/11/25 03:44:38;;;;;;;16.87;3.30;;;9.60;99.90;;;;;;5050373;28;20540;-53
2022/11/25 03:47:04;;;;;;;18.03;2.80;;;9.60;99.90;;;;;;5048976;28;20025;-53
2022/11/25 03:49:31;;;;;;;8.67;2.10;;;9.60;99.90;;;;;;5051878;28;20029;-53
2022/11/25 03:51:57;;;;;;;12.07;2.47;;;9.60;99.90;;;;;;5054399;28;20033;-54
2022/11/25 03:54:23;;;;;;;13.70;2.80;;;9.60;99.90;;;;;;5054149;28;20448;-54
2022/11/25 03:57:12;;;;;;;12.73;2.10;;;9.70;99.90;;;;;;5050919;28;20037;-53
2022/11/25 03:59:38;;;;;;;10.60;2.30;;;9.70;99.90;;;;;;5052507;28;20516;-53
2022/11/25 04:02:04;;;;;;;14.20;2.53;;;9.70;99.90;;;;;;5052992;28;20025;-52
2022/11/25 04:04:30;;;;;;;16.70;2.60;;;9.70;99.90;;;;;;5052865;28;20071;-55
2022/11/25 04:06:56;;;;;;;12.53;2.47;;;9.60;99.90;;;;;;5054534;28;20059;-54
2022/11/25 04:09:22;;;;;;;11.67;2.57;;;9.50;99.90;;;;;;5052484;28;20029;-51
2022/11/25 04:14:43;;;;;;;13.47;2.37;;;9.50;99.90;;;;;;5052792;28;20100;-53
2022/11/25 04:17:09;;;;;;;16.17;2.53;;;9.50;99.90;;;;;;5053850;28;20029;-52
2022/11/25 04:19:37;;;;;;;12.87;2.50;;;9.50;99.90;;;;;;5052292;28;20032;-51
2022/11/25 04:22:02;;;;;;;12.30;2.77;;;9.40;99.90;;;;;;5052657;28;20044;-51
2022/11/25 04:24:30;;;;;;;15.53;2.70;;;9.40;99.90;;;;;;5052533;28;20025;-52
2022/11/25 04:26:56;;;;;;;11.23;2.40;;;9.30;99.90;;;;;;5052268;28;20025;-54
2022/11/25 04:29:22;;;;;;;12.17;2.70;;;9.30;99.90;;;;;;5052284;28;20060;-54
2022/11/25 04:31:48;;;;;;;16.43;2.80;;;9.30;99.90;;;;;;5052323;28;20703;-50
2022/11/25 04:34:14;;;;;;;12.73;2.73;;;9.20;99.90;;;;;;5052574;28;20029;-53
2022/11/25 04:36:40;;;;;;;12.60;3.10;;;9.30;99.90;;;;;;5052142;28;20481;-54
2022/11/25 04:39:06;;;;;;;12.17;2.60;;;9.20;99.90;;;;;;5053017;28;20091;-53
2022/11/25 04:41:33;;;;;;;9.70;2.80;;;9.20;99.90;;;;;;5052096;28;20029;-51
2022/11/25 04:43:59;;;;;;;14.90;3.30;;;9.20;99.90;;;;;;5052219;28;20025;-54
2022/11/25 04:46:38;;;;;;;13.93;2.70;;;9.10;99.90;;;;;;5051833;28;20389;-50
2022/11/25 04:49:04;;;;;;;10.90;2.83;;;9.00;99.90;;;;;;5051905;28;20127;-52
2022/11/25 04:51:31;;;;;;;14.73;3.27;;;8.90;99.90;;;;;;5051954;28;20086;-51
2022/11/25 04:54:00;;;;;;;;;;;8.90;99.90;;;;;;5051256;28;20330;-52
2022/11/25 04:56:26;;;;;;;14.57;2.83;;;8.90;99.90;;;;;;5051559;28;19955;-52
2022/11/25 05:01:42;;;;;;;17.43;4.37;;;8.80;99.90;;;;;;5049681;28;20538;-51
2022/11/25 05:04:30;;;;;;;12.13;3.00;;;8.70;99.90;;;;;;5044620;28;20025;-50
2022/11/25 05:06:56;;;;;;;13.17;2.97;;;8.70;99.90;;;;;;5048102;28;20021;-48
2022/11/25 05:09:23;;;;;;;16.43;3.50;;;8.70;99.90;;;;;;5049665;28;20115;-49
2022/11/25 05:12:00;;;;;;;14.20;3.77;;;8.70;99.90;;;;;;5049658;28;20377;-51
2022/11/25 05:14:26;;;;;;;22.00;3.83;;;8.70;99.90;;;;;;5049996;28;20087;-51
2022/11/25 05:16:52;;;;;;;12.77;3.10;;;8.70;99.90;;;;;;5050450;28;20033;-55
2022/11/25 05:19:18;;;;;;;19.17;3.33;;;8.70;99.90;;;;;;5049963;28;20036;-51
2022/11/25 05:21:44;;;;;;;19.30;3.90;;;8.80;99.90;;;;;;5048921;28;20116;-52
2022/11/25 05:24:10;;;;;;;16.27;3.77;;;8.70;99.90;;;;;;5049445;28;20424;-54
2022/11/25 05:26:37;;;;;;;21.73;3.90;;;8.70;99.90;;;;;;5049271;28;20512;-52
2022/11/25 05:29:03;;;;;;;17.20;3.97;;;8.70;99.90;;;;;;5049135;28;20037;-54
2022/11/25 05:31:31;;;;;;;11.40;3.23;;;8.70;99.90;;;;;;5049374;28;20060;-53
2022/11/25 05:34:00;;;;;;;18.57;4.03;;;8.80;99.90;;;;;;5049918;28;20036;-53
2022/11/25 05:36:26;;;;;;;12.48;3.63;;;8.70;99.90;;;;;;5048235;28;20103;-52
2022/11/25 05:38:53;;;;;;;14.03;3.80;;;8.70;99.90;;;;;;5050366;28;20524;-51
2022/11/25 05:41:28;;;;;;;13.57;3.43;;;8.70;99.90;;;;;;5049089;28;20032;-52
2022/11/25 05:43:54;;;;;;;17.53;3.17;;;8.70;99.90;;;;;;5049071;28;20033;-49
2022/11/25 05:46:20;;;;;;;19.00;3.37;;;8.70;99.90;;;;;;5049044;28;20507;-52
2022/11/25 05:48:54;;;;;;;16.37;3.63;;;8.70;99.90;;;;;;5050030;28;20041;-53
2022/11/25 05:51:21;;;;;;;;;;;8.70;99.90;;;;;;5048847;28;20033;-54
2022/11/25 05:56:46;;;;;;;14.75;3.20;;;8.70;99.90;;;;;;5007179;28;20145;-52
2022/11/25 05:59:31;;;;;;;17.13;3.57;;;8.70;99.90;;;;;;5009447;28;20084;-53
2022/11/25 06:02:03;;;;;;;15.87;3.70;;;8.80;99.90;;;;;;5026393;28;20026;-54
2022/11/25 06:04:30;;;;;;;14.23;3.40;;;8.70;99.90;;;;;;5008339;28;20041;-52
2022/11/25 06:06:56;;;;;;;18.50;4.53;;;8.70;99.90;;;;;;5025587;28;20026;-54
2022/11/25 06:09:22;;;;;;;14.67;3.90;;;8.80;99.90;;;;;;5025525;28;20030;-54
2022/11/25 06:11:48;;;;;;;17.30;3.47;;;8.80;99.90;;;;;;5009103;28;20502;-55
2022/11/25 06:14:16;;;;;;;16.07;3.87;;;8.80;99.90;;;;;;5011115;28;20045;-53
2022/11/25 06:16:43;;;;;;;19.08;4.22;;;8.80;99.90;;;;;;5009014;28;20448;-61
2022/11/25 06:19:20;;;;;;;15.27;3.83;;;8.80;99.90;;;;;;5025158;28;20107;-53
2022/11/25 06:21:45;;;;;;;15.77;3.97;;;8.80;99.90;;;;;;5024692;28;20092;-53
2022/11/25 06:24:12;;;;;;;18.77;3.73;;;8.80;99.90;;;;;;5007248;28;20030;-52
2022/11/25 06:26:41;;;;;;;20.25;4.63;;;8.80;99.90;;;;;;5006659;28;20020;-54
2022/11/25 06:29:06;;;;;;;18.77;3.97;;;8.70;99.90;;;;;;5006974;28;20038;-54
2022/11/25 06:31:33;;;;;;;15.50;4.20;;;8.70;99.90;;;;;;5023473;28;20038;-54
2022/11/25 06:34:13;;;;;;;17.77;4.23;;;8.70;99.90;;;;;;5006601;28;20026;-52
2022/11/25 06:36:40;;;;;;;12.30;4.13;;;8.70;99.90;;;;;;5022362;28;20057;-55
2022/11/25 06:39:06;;;;;;;16.63;4.93;;;8.70;99.90;;;;;;5009284;28;20104;-54
2022/11/25 06:41:31;;;;;;;14.53;4.13;;;8.60;99.90;;;;;;5010081;28;20026;-54
2022/11/25 06:43:57;;;;;;;17.97;3.93;;;8.60;99.90;;;;;;5009923;28;20422;-54
2022/11/25 06:46:23;;;;;;;19.27;4.40;;;8.60;99.90;;;;;;5009818;28;20048;-54
2022/11/25 06:48:48;;;;;;;19.60;4.47;;;8.60;99.90;;;;;;5009258;28;20119;-51
2022/11/25 06:51:15;;;;;;;15.83;4.37;;;8.60;99.90;;;;;;5008951;28;20092;-51
2022/11/25 06:53:41;;;;;;;17.97;4.13;;;8.70;99.90;;;;;;5009982;28;20041;-55
2022/11/25 06:56:09;;;;;;;15.33;4.27;;;8.60;99.90;;;;;;5009728;28;20030;-54
2022/11/25 06:58:36;;;;;;;19.53;4.83;;;8.60;99.90;;;;;;5009296;28;20033;-55
2022/11/25 07:01:04;;;;;;;21.83;3.77;;;8.60;99.90;;;;;;5009650;28;20076;-54
2022/11/25 07:03:30;;;;;;;15.77;4.40;;;8.60;99.90;;;;;;5009156;28;20089;-55
2022/11/25 07:05:57;;;;;;;19.37;4.90;;;8.60;99.90;;;;;;5009188;28;20029;-54
2022/11/25 07:08:23;;;;;;;19.20;4.43;;;8.70;99.90;;;;;;5009448;28;20165;-54
2022/11/25 07:10:50;;;;;;;17.93;4.83;;;8.70;99.90;;;;;;5009383;28;20065;-54
2022/11/25 07:13:15;;;;;;;18.23;4.33;;;8.70;99.90;;;;;;5009221;28;20034;-54
2022/11/25 07:15:41;;;;;;;14.93;4.50;;;8.60;99.90;;;;;;5009373;28;20128;-48
2022/11/25 07:18:07;;;;;;;16.40;4.73;;;8.70;99.90;;;;;;5007418;28;20037;-49
2022/11/25 07:20:32;;;;;;;14.03;4.57;;;8.70;99.90;;;;;;5007518;28;20030;-46
2022/11/25 07:22:58;;;;;;;18.73;5.33;;;8.70;99.90;;;;;;5008451;28;20065;-48
2022/11/25 07:25:24;;;;;;;22.67;4.93;;;8.70;99.90;;;;;;5008834;28;20068;-50
2022/11/25 07:27:49;;;;;;;17.50;4.20;;;8.70;99.90;;;;;;5008794;28;20401;-51
2022/11/25 07:30:15;;;;;;;19.50;4.63;;;8.70;99.90;;;;;;5008747;28;20307;-54
2022/11/25 07:32:41;;;;;;;16.57;4.10;;;8.70;99.90;;;;;;5008773;28;20105;-49
2022/11/25 07:35:07;;;;;;;18.90;4.20;;;8.70;99.90;;;;;;5007697;28;20473;-49
2022/11/25 07:37:33;;;;;;;16.40;4.33;;;8.70;99.90;;;;;;5008596;28;20030;-52
2022/11/25 07:39:58;;;;;;;13.50;4.00;;;8.70;99.90;;;;;;5008661;28;20082;-54
2022/11/25 07:42:24;;;;;;;18.23;4.37;;;8.60;99.90;;;;;;5024402;28;20115;-52
2022/11/25 07:44:50;;;;;;;18.07;4.77;;;8.60;99.90;;;;;;5009329;28;20029;-52
2022/11/25 07:47:34;;;;;;;20.60;4.90;;;8.60;99.90;;;;;;5009259;28;20096;-56
2022/11/25 07:50:00;;;;;;;13.63;4.03;;;8.60;99.90;;;;;;5007924;28;20029;-51
2022/11/25 07:52:25;;;;;;;21.07;4.53;;;8.60;99.90;;;;;;5009292;28;20033;-49
2022/11/25 07:54:52;;;;;;;17.17;4.70;;;8.70;99.90;;;;;;5008843;28;20045;-55
2022/11/25 07:57:18;;;;;;;22.33;5.23;;;8.80;99.90;;;;;;5008735;28;20390;-53
2022/11/25 07:59:43;;;;;;;19.63;4.43;;;8.80;99.90;;;;;;5008576;28;20026;-52
2022/11/25 08:02:09;;;;;;;14.97;4.67;;;8.80;99.90;;;;;;5006595;28;20030;-52
2022/11/25 08:04:36;;;;;;;18.83;6.37;;;8.70;99.90;;;;;;5001077;28;20416;-50
2022/11/25 08:07:02;;;;;;;17.17;6.20;;;8.80;99.90;;;;;;5003672;28;20095;-53
2022/11/25 08:09:27;;;;;;;18.40;3.97;;;8.80;99.90;;;;;;5007448;28;20518;-52
2022/11/25 08:11:53;;;;;;;13.40;4.33;;;8.80;99.90;;;;;;5006793;28;20033;-54
2022/11/25 08:14:19;;;;;;;14.20;4.10;;;8.70;99.90;;;;;;5007833;28;20045;-54
2022/11/25 08:16:45;;;;;;;16.47;4.20;;;8.70;99.90;;;;;;5007504;28;20029;-55
2022/11/25 08:19:14;;;;;;;14.27;4.37;;;8.80;99.90;;;;;;5007259;28;20037;-53
2022/11/25 08:21:40;;;;;;;13.97;4.07;;;8.80;99.90;;;;;;5006332;28;20105;-51
2022/11/25 08:24:06;;;;;;;16.90;4.33;;;8.80;99.90;;;;;;5007623;28;20034;-54
2022/11/25 08:26:36;;;;;;;13.83;3.90;;;8.80;99.90;;;;;;5007344;28;20033;-54
2022/11/25 08:29:03;;;;;;;18.37;4.67;;;8.80;99.90;;;;;;5007615;28;20441;-51
2022/11/25 08:31:31;;;;;;;17.23;4.97;;;8.80;99.90;;;;;;5006678;28;20363;-52
2022/11/25 08:33:58;;;;;;;14.53;4.00;;;8.70;99.90;;;;;;5007956;28;20117;-52
2022/11/25 08:36:25;;;;;;;19.37;4.60;;;8.70;99.90;;;;;;5009016;28;20106;-54
2022/11/25 08:38:55;;;;;;;14.83;4.33;;;8.70;99.90;;;;;;5011228;28;20029;-52
2022/11/25 08:41:28;;;;;;;16.33;4.67;;;8.70;99.90;;;;;;5009436;28;20088;-48
2022/11/25 08:43:55;;;;;;;15.17;4.20;;;8.70;99.90;;;;;;5010844;28;20560;-53
2022/11/25 08:46:25;;;;;;;15.43;5.00;;;8.70;99.90;;;;;;5010597;28;20034;-54
2022/11/25 08:48:51;;;;;;;16.50;5.50;;;8.80;99.90;;;;;;5010560;28;20107;-52
2022/11/25 08:51:23;;;;;;;19.27;4.80;;;8.80;99.90;;;;;;5009375;28;20034;-54
2022/11/25 08:53:50;;;;;;;16.70;5.00;;;8.80;99.90;;;;;;5010716;28;20087;-52
2022/11/25 08:56:16;;;;;;;22.30;6.23;;;8.90;99.90;;;;;;5010796;28;20034;-52
2022/11/25 08:58:42;;;;;;;20.43;6.03;;;8.90;99.90;;;;;;5010718;28;20160;-56
2022/11/25 09:01:09;;;;;;;18.67;5.60;;;9.10;99.90;;;;;;5009954;28;20788;-48
2022/11/25 09:03:38;;;;;;;10.63;4.67;;;9.20;99.90;;;;;;5010596;28;20029;-47
2022/11/25 09:06:07;;;;;;;17.23;4.80;;;9.30;99.90;;;;;;5009268;28;20025;-53
2022/11/25 09:08:33;;;;;;;18.05;5.03;;;9.30;99.90;;;;;;5010166;28;20113;-52
2022/11/25 09:10:59;;;;;;;13.27;4.07;;;9.30;99.90;;;;;;5008466;28;20038;-54
2022/11/25 09:13:25;;;;;;;13.43;3.90;;;9.30;99.90;;;;;;5010627;28;20042;-55
2022/11/25 09:15:51;;;;;;;17.27;3.87;;;9.40;99.90;;;;;;5010140;28;20184;-52
2022/11/25 09:18:19;;;;;;;15.40;4.20;;;9.40;99.90;;;;;;5009482;28;20508;-53
2022/11/25 09:20:45;;;;;;;13.10;4.30;;;9.50;99.90;;;;;;5004913;28;20026;-53
2022/11/25 09:23:12;;;;;;;12.67;3.80;;;9.50;99.90;;;;;;5009492;28;20038;-52
2022/11/25 09:25:38;;;;;;;12.90;3.80;;;9.60;99.90;;;;;;5010377;28;20033;-52
2022/11/25 09:28:04;;;;;;;13.43;3.33;;;9.60;99.90;;;;;;5010006;28;20378;-51
2022/11/25 09:30:30;;;;;;;14.63;3.60;;;9.80;99.90;;;;;;5009901;28;20041;-52
2022/11/25 09:32:56;;;;;;;13.77;4.03;;;10.10;99.90;;;;;;5008902;28;20030;-55
2022/11/25 09:35:24;;;;;;;12.80;3.70;;;10.30;99.90;;;;;;5009152;28;20038;-53
2022/11/25 09:37:50;;;;;;;12.87;3.70;;;10.40;99.90;;;;;;5024213;28;20026;-51
2022/11/25 09:40:44;;;;;;;10.77;3.23;;;10.30;99.90;;;;;;5009751;28;20120;-52
2022/11/25 09:47:01;;;;;;;10.17;3.33;;;10.20;99.90;;;;;;5002364;28;20152;-50
2022/11/25 09:49:59;;;;;;;10.77;3.73;;;10.20;99.90;;;;;;5008807;28;20030;-53
2022/11/25 09:52:45;;;;;;;12.47;2.70;;;10.10;99.90;;;;;;4985989;28;20560;-52
2022/11/25 09:55:18;;;;;;;14.67;3.00;;;10.00;99.90;;;;;;5009664;28;20048;-53
2022/11/25 09:58:21;;;;;;;13.30;3.67;;;10.00;99.90;;;;;;5009159;28;20057;-49
2022/11/25 10:00:50;;;;;;;12.10;3.23;;;10.00;99.90;;;;;;5008858;28;20407;-53
2022/11/25 10:03:18;;;;;;;11.18;3.08;;;10.10;99.90;;;;;;5009550;28;20440;-49
2022/11/25 10:05:52;;;;;;;11.30;3.00;;;10.10;99.90;;;;;;5009022;28;20026;-50
2022/11/25 10:08:22;;;;;;;9.90;3.13;;;10.20;99.90;;;;;;5008975;28;20083;-52
2022/11/25 10:11:02;;;;;;;12.17;3.23;;;10.40;99.90;;;;;;5008802;28;20041;-54
2022/11/25 10:13:51;;;;;;;11.80;2.80;;;10.60;99.90;;;;;;5009369;28;20475;-53
2022/11/25 10:16:32;;;;;;;11.68;3.28;;;11.20;99.90;;;;;;5008824;28;20034;-52
2022/11/25 10:19:12;;;;;;;11.93;3.33;;;11.60;99.90;;;;;;5008559;28;20029;-51
2022/11/25 10:21:38;;;;;;;8.45;2.80;;;11.80;99.90;;;;;;5007470;28;20026;-52
2022/11/25 10:24:05;;;;;;;12.30;3.00;;;11.90;99.90;;;;;;5009190;28;20407;-53
2022/11/25 10:26:37;;;;;;;11.30;3.13;;;12.00;99.90;;;;;;5008486;28;20073;-55
2022/11/25 10:29:24;;;;;;;13.23;3.25;;;12.00;99.90;;;;;;5008919;28;20029;-51
2022/11/25 10:31:58;;;;;;;9.75;3.17;;;12.00;99.90;;;;;;5008340;28;20041;-54
2022/11/25 10:34:43;;;;;;;10.93;3.17;;;12.00;99.90;;;;;;5008405;28;20783;-53
2022/11/25 10:37:20;;;;;;;10.27;2.75;;;12.20;99.90;;;;;;5008639;28;20030;-54
2022/11/25 10:39:46;;;;;;;10.73;3.15;;;12.20;99.90;;;;;;5007824;28;20117;-51
2022/11/25 10:42:17;;;;;;;11.18;2.83;;;12.20;99.90;;;;;;5008767;28;20057;-54
2022/11/25 10:44:43;;;;;;;12.32;3.13;;;12.00;99.90;;;;;;5008374;28;20043;-55
2022/11/25 10:47:21;;;;;;;17.73;3.90;;;11.80;99.90;;;;;;4997055;28;20021;-54
2022/11/25 10:50:05;;;;;;;13.43;2.87;;;11.50;99.90;;;;;;4999235;28;20037;-56
2022/11/25 10:52:54;;;;;;;12.55;2.85;;;11.30;99.90;;;;;;5009941;28;20065;-52
2022/11/25 10:55:32;;;;;;;15.80;3.20;;;11.20;99.90;;;;;;5024761;28;20466;-51
2022/11/25 10:57:59;;;;;;;10.97;3.27;;;11.20;99.90;;;;;;5009493;28;20113;-53
2022/11/25 11:00:35;;;;;;;12.87;3.50;;;11.20;99.90;;;;;;5009277;28;20028;-55
2022/11/25 11:03:24;;;;;;;13.03;3.57;;;11.20;99.90;;;;;;5008865;28;20025;-54
2022/11/25 11:05:52;;;;;;;13.13;3.00;;;11.30;99.90;;;;;;5008287;28;20072;-54
2022/11/25 11:08:27;;;;;;;12.93;3.50;;;11.40;99.90;;;;;;5009052;28;20434;-53
2022/11/25 11:11:26;;;;;;;40.67;20.57;;;11.40;99.90;;;;;;5008861;28;20574;-53
2022/11/25 11:14:13;;;;;;;21.83;5.68;;;11.40;99.90;;;;;;4986410;28;20076;-50
2022/11/25 11:16:51;;;;;;;18.67;4.30;;;11.40;99.90;;;;;;5008531;28;20053;-53
2022/11/25 11:19:22;;;;;;;16.27;3.10;;;11.30;99.90;;;;;;5008831;28;20363;-53
2022/11/25 11:21:49;;;;;;;15.60;3.10;;;11.40;99.90;;;;;;5008150;28;20025;-50
2022/11/25 11:24:41;;;;;;;12.83;2.83;;;11.50;99.90;;;;;;5008980;28;20506;-50
2022/11/25 11:27:21;;;;;;;17.02;3.35;;;11.70;99.90;;;;;;5008523;28;20084;-53
2022/11/25 11:29:47;;;;;;;8.15;2.30;;;11.90;99.90;;;;;;5007351;28;20478;-52
2022/11/25 11:32:23;;;;;;;11.70;2.97;;;12.00;99.90;;;;;;5009080;28;20087;-51
2022/11/25 11:35:16;;;;;;;15.80;3.60;;;12.00;99.90;;;;;;5007793;28;20042;-59
2022/11/25 11:37:46;;;;;;;12.68;3.42;;;12.10;99.90;;;;;;5008240;28;20120;-54
2022/11/25 11:40:18;;;;;;;14.07;3.58;;;12.10;99.90;;;;;;5008741;28;20449;-53
2022/11/25 11:42:52;;;;;;;13.82;3.50;;;12.10;99.90;;;;;;5008839;28;20482;-53
2022/11/25 11:45:24;;;;;;;15.60;3.72;;;12.00;99.90;;;;;;5008665;28;20529;-53
2022/11/25 11:48:06;;;;;;;13.10;3.30;;;11.90;99.90;;;;;;5007820;28;20038;-53
2022/11/25 11:50:50;;;;;;;15.68;3.33;;;11.90;99.90;;;;;;5007850;28;20041;-52
2022/11/25 11:53:40;;;;;;;15.07;3.30;;;11.90;99.90;;;;;;5008700;28;20085;-53
2022/11/25 11:56:27;;;;;;;15.80;2.65;;;11.80;99.90;;;;;;5008716;28;20084;-53
2022/11/25 11:59:03;;;;;;;13.88;2.90;;;11.70;99.90;;;;;;5008438;28;20053;-52
2022/11/25 12:01:50;;;;;;;13.75;3.30;;;11.80;99.90;;;;;;5008749;28;20084;-53
2022/11/25 12:04:20;;;;;;;14.38;3.17;;;11.80;99.90;;;;;;5008689;28;20503;-55
2022/11/25 12:06:59;;;;;;;11.70;2.28;;;12.00;99.90;;;;;;5020333;28;20022;-56
2022/11/25 12:09:28;;;;;;;17.63;3.80;;;12.20;99.90;;;;;;5000244;28;20066;-53
2022/11/25 12:11:58;;;;;;;;;;;12.50;99.90;;;;;;5007762;28;20072;-55
2022/11/25 12:14:46;;;;;;;13.75;3.00;;;12.70;99.90;;;;;;5012380;28;19923;-55
2022/11/25 12:17:26;;;;;;;13.70;2.90;;;12.80;99.90;;;;;;5012588;28;20026;-51
2022/11/25 12:20:12;;;;;;;13.65;2.58;;;12.80;99.90;;;;;;5010894;28;20072;-55
2022/11/25 12:22:44;;;;;;;11.82;3.05;;;12.60;99.90;;;;;;5012642;28;20033;-51
2022/11/25 12:25:18;;;;;;;16.15;2.78;;;12.50;99.90;;;;;;5012425;28;20570;-52
2022/11/25 12:28:06;;;;;;;13.40;3.45;;;12.50;99.90;;;;;;5012362;28;20029;-51
2022/11/25 12:30:52;;;;;;;14.93;2.67;;;12.50;99.90;;;;;;5012312;28;20479;-51
2022/11/25 12:33:42;;;;;;;11.07;2.70;;;12.50;99.90;;;;;;5012774;28;20502;-54
2022/11/25 12:36:08;;;;;;;13.90;2.33;;;12.50;99.90;;;;;;5008394;28;20495;-54
2022/11/25 12:38:47;;;;;;;9.82;2.63;;;12.50;99.90;;;;;;5012038;28;20065;-53
2022/11/25 12:41:29;;;;;;;10.75;3.05;;;12.50;99.90;;;;;;5011972;28;20414;-50
2022/11/25 12:44:16;;;;;;;10.27;2.25;;;12.50;99.90;;;;;;5012527;28;20033;-54
2022/11/25 12:46:48;;;;;;;11.15;2.30;;;12.50;99.90;;;;;;5011883;28;20044;-51
2022/11/25 12:49:20;;;;;;;14.80;2.55;;;12.20;99.90;;;;;;5011928;28;20141;-53
2022/11/25 12:52:23;;;;;;;10.05;2.13;;;12.10;99.90;;;;;;5011020;28;20037;-52
2022/11/25 12:55:04;;;;;;;11.80;2.40;;;12.20;99.90;;;;;;5011840;28;20038;-53
2022/11/25 12:58:07;;;;;;;8.40;2.15;;;12.30;99.90;;;;;;5010490;28;20502;-53
2022/11/25 13:00:51;;;;;;;12.13;2.53;;;12.70;99.90;;;;;;5011950;28;20079;-49
2022/11/25 13:03:42;;;;;;;10.85;2.25;;;12.80;99.90;;;;;;5011892;28;20026;-53
2022/11/25 13:06:32;;;;;;;9.75;2.30;;;13.20;99.90;;;;;;5010677;28;20489;-54
2022/11/25 13:09:15;;;;;;;11.45;2.20;;;13.70;99.90;;;;;;5010788;28;20564;-56
2022/11/25 13:11:55;;;;;;;13.82;3.35;;;13.70;99.90;;;;;;5011658;28;20046;-57
2022/11/25 13:14:46;;;;;;;17.33;5.45;;;13.60;99.90;;;;;;5011636;28;20482;-59
2022/11/25 13:17:13;;;;;;;12.43;2.58;;;13.60;99.90;;;;;;5011508;28;20441;-55
2022/11/25 13:19:39;;;;;;;11.68;3.15;;;13.50;99.90;;;;;;5010031;28;20072;-51